Time;durP1;ratioP1;P1;durP2;ratioP2;P2;SDS_P1;SDS_P2;PMS_P1;PMS_P2;Temp;Humidity;BMP_temperature;BMP_pressure;BME280_temperature;BME280_humidity;BME280_pressure;Samples;Min_cycle;Max_cycle;Signal;HPM_P1;HPM_P2
2021/03/23 00:00:49;;;;;;;0.63;0.63;;;6.80;99.90;;;;;;5044224;28;20186;-86
2021/03/23 00:03:19;;;;;;;0.97;0.97;;;6.80;99.90;;;;;;5036193;28;20644;-86
2021/03/23 00:05:45;;;;;;;1.23;0.60;;;6.90;99.90;;;;;;5062291;28;20554;-85
2021/03/23 00:08:34;;;;;;;0.50;0.50;;;6.90;99.90;;;;;;5036957;28;20175;-86
2021/03/23 00:11:06;;;;;;;0.63;0.57;;;6.80;99.90;;;;;;5039663;28;20240;-86
2021/03/23 00:13:32;;;;;;;0.73;0.73;;;6.80;99.90;;;;;;5042098;28;20624;-86
2021/03/23 00:15:58;;;;;;;0.60;0.60;;;6.80;99.90;;;;;;5047382;28;20216;-86
2021/03/23 00:18:23;;;;;;;1.33;0.77;;;6.80;99.90;;;;;;5041108;28;20210;-86
2021/03/23 00:20:49;;;;;;;2.33;0.67;;;6.80;99.90;;;;;;5035832;28;20693;-85
2021/03/23 00:23:15;;;;;;;0.53;0.53;;;6.70;99.90;;;;;;5044088;28;20187;-86
2021/03/23 00:25:40;;;;;;;0.67;0.67;;;6.80;99.90;;;;;;5037013;28;20182;-86
2021/03/23 00:28:07;;;;;;;0.40;0.40;;;6.70;99.90;;;;;;5048696;28;20261;-86
2021/03/23 00:30:33;;;;;;;0.47;0.40;;;6.80;99.90;;;;;;5041597;28;20198;-86
2021/03/23 00:32:59;;;;;;;0.80;0.37;;;6.70;99.90;;;;;;5053291;28;20186;-86
2021/03/23 00:35:25;;;;;;;0.83;0.70;;;6.80;99.90;;;;;;5048714;28;20182;-86
2021/03/23 00:37:58;;;;;;;0.47;0.47;;;6.80;99.90;;;;;;5048604;28;20178;-86
2021/03/23 00:40:28;;;;;;;1.43;0.33;;;6.70;99.90;;;;;;5048592;28;20202;-87
2021/03/23 00:42:55;;;;;;;0.40;0.40;;;6.70;99.90;;;;;;5033559;28;20680;-86
2021/03/23 00:45:21;;;;;;;0.83;0.80;;;6.70;99.90;;;;;;5037156;28;20181;-86
2021/03/23 00:47:47;;;;;;;3.63;1.23;;;6.70;99.90;;;;;;5042485;28;20190;-86
2021/03/23 00:50:13;;;;;;;0.90;0.63;;;6.80;99.90;;;;;;5046540;28;20214;-86
2021/03/23 00:52:39;;;;;;;0.50;0.50;;;6.70;99.90;;;;;;5036468;28;20612;-86
2021/03/23 00:55:07;;;;;;;0.13;0.13;;;6.60;99.90;;;;;;5047757;28;20261;-85
2021/03/23 00:57:32;;;;;;;2.47;0.67;;;6.60;99.90;;;;;;5034055;28;20662;-86
2021/03/23 00:59:58;;;;;;;0.53;0.50;;;6.60;99.90;;;;;;5047458;28;20280;-86
2021/03/23 01:02:24;;;;;;;0.83;0.53;;;6.70;99.90;;;;;;5042841;28;20233;-87
2021/03/23 01:04:50;;;;;;;0.73;0.73;;;6.70;99.90;;;;;;5033151;28;20184;-86
2021/03/23 01:07:16;;;;;;;0.97;0.90;;;6.70;99.90;;;;;;5040847;28;20225;-86
2021/03/23 01:09:41;;;;;;;0.30;0.30;;;6.60;99.90;;;;;;5044026;28;20297;-86
2021/03/23 01:12:09;;;;;;;0.40;0.40;;;6.70;99.90;;;;;;5042415;28;20182;-85
2021/03/23 01:14:35;;;;;;;1.07;0.63;;;6.70;99.90;;;;;;5039718;28;20241;-87
2021/03/23 01:17:01;;;;;;;0.53;0.53;;;6.60;99.90;;;;;;5037956;28;20187;-86
2021/03/23 01:19:27;;;;;;;0.50;0.50;;;6.60;99.90;;;;;;5044769;28;20831;-86
2021/03/23 01:21:52;;;;;;;2.90;0.60;;;6.70;99.90;;;;;;5032814;28;20178;-85
2021/03/23 01:24:18;;;;;;;1.73;0.73;;;6.70;99.90;;;;;;5042266;28;20182;-86
2021/03/23 01:26:43;;;;;;;0.50;0.50;;;6.70;99.90;;;;;;5043849;28;20256;-86
2021/03/23 01:29:09;;;;;;;1.80;0.30;;;6.80;99.90;;;;;;5046717;28;20218;-86
2021/03/23 01:31:35;;;;;;;0.60;0.60;;;6.90;99.90;;;;;;5037766;28;20202;-86
2021/03/23 01:34:00;;;;;;;0.43;0.33;;;6.80;99.90;;;;;;5035290;28;20189;-86
2021/03/23 01:36:26;;;;;;;0.30;0.30;;;7.00;99.90;;;;;;5049115;28;20189;-86
2021/03/23 01:38:51;;;;;;;0.30;0.30;;;7.00;99.90;;;;;;5051974;28;20214;-86
2021/03/23 01:41:17;;;;;;;0.30;0.30;;;6.80;99.90;;;;;;5040088;28;20285;-86
2021/03/23 01:43:42;;;;;;;0.53;0.40;;;6.90;99.90;;;;;;5035910;28;20240;-86
2021/03/23 01:46:31;;;;;;;0.60;0.60;;;6.80;99.90;;;;;;5035927;28;20594;-86
2021/03/23 01:48:59;;;;;;;0.83;0.83;;;6.70;99.90;;;;;;5043917;28;20210;-86
2021/03/23 01:51:25;;;;;;;0.57;0.57;;;6.70;99.90;;;;;;5033495;28;20187;-86
2021/03/23 01:54:05;;;;;;;0.93;0.30;;;6.70;99.90;;;;;;5038773;28;20649;-86
2021/03/23 01:56:32;;;;;;;0.30;0.30;;;6.70;99.90;;;;;;5038823;28;20248;-86
2021/03/23 01:59:02;;;;;;;0.50;0.50;;;6.80;99.90;;;;;;5049199;28;20210;-86
2021/03/23 02:01:30;;;;;;;0.37;0.37;;;7.00;99.90;;;;;;5036939;28;20224;-86
2021/03/23 02:03:55;;;;;;;0.57;0.57;;;7.00;99.90;;;;;;5041284;28;20200;-86
2021/03/23 02:06:45;;;;;;;2.37;0.30;;;6.80;99.90;;;;;;5038477;28;20171;-86
2021/03/23 02:09:24;;;;;;;0.80;0.80;;;6.90;99.90;;;;;;5052451;28;20210;-86
2021/03/23 02:11:52;;;;;;;0.17;0.17;;;6.80;99.90;;;;;;5044492;28;20240;-86
2021/03/23 02:14:21;;;;;;;1.27;0.57;;;6.90;99.90;;;;;;5035384;28;20173;-87
2021/03/23 02:16:48;;;;;;;0.73;0.67;;;6.90;99.90;;;;;;5036936;28;20186;-85
2021/03/23 02:19:17;;;;;;;0.40;0.40;;;6.90;99.90;;;;;;5034664;28;20213;-86
2021/03/23 02:21:43;;;;;;;0.40;0.37;;;7.00;99.90;;;;;;5031600;28;20587;-86
2021/03/23 02:24:13;;;;;;;0.13;0.13;;;6.90;99.90;;;;;;5037357;28;20186;-86
2021/03/23 02:26:39;;;;;;;4.63;0.63;;;6.90;99.90;;;;;;5040055;28;20197;-86
2021/03/23 02:29:17;;;;;;;0.43;0.43;;;6.90;99.90;;;;;;5040363;28;20202;-87
2021/03/23 02:31:48;;;;;;;0.87;0.87;;;7.00;99.90;;;;;;5051015;28;20182;-86
2021/03/23 02:34:18;;;;;;;0.63;0.60;;;6.90;99.90;;;;;;5034367;28;20201;-86
2021/03/23 02:36:45;;;;;;;2.83;1.10;;;6.80;99.90;;;;;;5043249;28;20192;-86
2021/03/23 02:39:14;;;;;;;4.90;1.17;;;6.90;99.90;;;;;;5033027;28;20632;-86
2021/03/23 02:41:40;;;;;;;0.63;0.30;;;7.00;99.90;;;;;;5038718;28;20178;-86
2021/03/23 02:44:06;;;;;;;3.57;0.57;;;6.90;99.90;;;;;;5058449;28;20573;-86
2021/03/23 02:46:32;;;;;;;0.97;0.30;;;6.90;99.90;;;;;;5036603;28;20205;-85
2021/03/23 02:48:58;;;;;;;0.90;0.90;;;6.90;99.90;;;;;;5045822;28;20293;-86
2021/03/23 02:51:24;;;;;;;0.43;0.43;;;7.00;99.90;;;;;;5031031;28;20631;-86
2021/03/23 02:53:50;;;;;;;0.30;0.30;;;7.10;99.90;;;;;;5033131;28;20183;-86
2021/03/23 02:56:16;;;;;;;0.63;0.30;;;7.00;99.90;;;;;;5042729;28;20304;-86
2021/03/23 02:58:42;;;;;;;1.10;1.00;;;7.10;99.90;;;;;;5045026;28;20213;-86
2021/03/23 03:01:09;;;;;;;0.97;0.93;;;7.10;99.90;;;;;;5042250;28;20537;-86
2021/03/23 03:03:35;;;;;;;0.93;0.60;;;7.10;99.90;;;;;;5042103;28;20184;-86
2021/03/23 03:06:00;;;;;;;0.20;0.20;;;7.10;99.90;;;;;;5044291;28;20705;-86
2021/03/23 03:08:26;;;;;;;1.37;1.00;;;7.20;99.90;;;;;;5037209;28;20189;-86
2021/03/23 03:10:53;;;;;;;0.67;0.60;;;7.20;99.90;;;;;;5041462;28;20183;-85
2021/03/23 03:13:21;;;;;;;0.37;0.37;;;7.20;99.90;;;;;;5038565;28;20653;-86
2021/03/23 03:15:49;;;;;;;0.73;0.73;;;7.20;99.90;;;;;;5048104;28;20213;-86
2021/03/23 03:18:15;;;;;;;0.33;0.33;;;7.10;99.90;;;;;;5032246;28;20179;-86
2021/03/23 03:20:41;;;;;;;0.30;0.30;;;7.00;99.90;;;;;;5044964;28;20219;-86
2021/03/23 03:23:06;;;;;;;2.50;1.53;;;6.90;99.90;;;;;;5050167;28;20178;-86
2021/03/23 03:25:32;;;;;;;0.27;0.27;;;6.90;99.90;;;;;;5046297;28;20182;-85
2021/03/23 03:27:58;;;;;;;0.80;0.80;;;7.00;99.90;;;;;;5038983;28;20688;-86
2021/03/23 03:30:30;;;;;;;0.83;0.73;;;7.10;99.90;;;;;;5038058;28;20210;-86
2021/03/23 03:32:56;;;;;;;0.30;0.30;;;7.10;99.90;;;;;;5033236;28;20194;-85
2021/03/23 03:35:30;;;;;;;0.10;0.10;;;7.10;99.90;;;;;;5044619;28;20657;-86
2021/03/23 03:37:56;;;;;;;0.87;0.70;;;7.10;99.90;;;;;;5044175;28;20198;-86
2021/03/23 03:40:26;;;;;;;0.50;0.50;;;7.30;99.90;;;;;;5036950;28;20233;-86
2021/03/23 03:42:52;;;;;;;0.90;0.53;;;7.40;99.90;;;;;;5042892;28;20202;-86
2021/03/23 03:45:19;;;;;;;0.73;0.60;;;7.40;99.90;;;;;;5038493;28;20679;-85
2021/03/23 03:47:45;;;;;;;1.30;0.57;;;7.40;99.90;;;;;;5045677;28;20225;-86
2021/03/23 03:50:12;;;;;;;0.60;0.60;;;7.50;99.90;;;;;;5041475;28;20224;-86
2021/03/23 03:52:37;;;;;;;0.40;0.23;;;7.50;99.90;;;;;;5036627;28;20186;-86
2021/03/23 03:55:04;;;;;;;1.87;0.37;;;7.50;99.90;;;;;;5038083;28;20194;-86
2021/03/23 03:57:32;;;;;;;1.00;0.30;;;7.60;99.90;;;;;;5055982;28;20180;-86
2021/03/23 03:59:57;;;;;;;0.53;0.50;;;7.60;99.90;;;;;;5051321;28;20204;-86
2021/03/23 04:02:23;;;;;;;1.70;0.50;;;7.60;99.90;;;;;;5046578;28;20213;-86
2021/03/23 04:04:49;;;;;;;0.30;0.30;;;7.60;99.90;;;;;;5051668;28;20187;-85
2021/03/23 04:07:14;;;;;;;0.50;0.50;;;7.60;99.90;;;;;;5040534;28;20212;-86
2021/03/23 04:09:40;;;;;;;0.63;0.43;;;7.70;99.90;;;;;;5037358;28;20217;-86
2021/03/23 04:12:07;;;;;;;1.03;0.87;;;7.70;99.90;;;;;;5045206;28;20536;-86
2021/03/23 04:14:33;;;;;;;0.40;0.40;;;7.60;99.90;;;;;;5048587;28;20763;-85
2021/03/23 04:16:59;;;;;;;1.40;1.03;;;7.60;99.90;;;;;;5045332;28;20192;-86
2021/03/23 04:19:25;;;;;;;0.90;0.33;;;7.50;99.90;;;;;;5037747;28;20218;-86
2021/03/23 04:21:50;;;;;;;2.93;0.57;;;7.50;99.90;;;;;;5035042;28;20277;-86
2021/03/23 04:24:16;;;;;;;0.37;0.37;;;7.60;99.90;;;;;;5043427;28;20179;-87
2021/03/23 04:26:42;;;;;;;0.60;0.60;;;7.60;99.90;;;;;;5035200;28;20184;-86
2021/03/23 04:29:07;;;;;;;0.87;0.53;;;7.60;99.90;;;;;;5050597;28;20238;-85
2021/03/23 04:31:36;;;;;;;1.23;0.40;;;7.50;99.90;;;;;;5041626;28;20183;-86
2021/03/23 04:34:03;;;;;;;0.30;0.30;;;7.60;99.90;;;;;;5047919;28;20191;-87
2021/03/23 04:36:28;;;;;;;0.10;0.10;;;7.60;99.90;;;;;;5048561;28;20276;-87
2021/03/23 04:38:54;;;;;;;0.83;0.40;;;7.50;99.90;;;;;;5045563;28;20215;-87
2021/03/23 04:41:20;;;;;;;0.53;0.27;;;7.50;99.90;;;;;;5036921;28;20183;-87
2021/03/23 04:43:48;;;;;;;1.30;1.20;;;7.50;99.90;;;;;;5036811;28;20192;-87
2021/03/23 04:46:22;;;;;;;0.67;0.67;;;7.50;99.90;;;;;;5043733;28;20186;-89
2021/03/23 04:48:48;;;;;;;0.60;0.60;;;7.50;99.90;;;;;;5046584;28;20210;-86
2021/03/23 04:51:15;;;;;;;1.03;0.87;;;7.50;99.90;;;;;;5041175;28;20188;-87
2021/03/23 04:53:42;;;;;;;1.23;0.97;;;7.50;99.90;;;;;;5037955;28;20221;-86
2021/03/23 04:56:17;;;;;;;0.30;0.30;;;7.50;99.90;;;;;;5048566;28;20187;-88
2021/03/23 04:58:42;;;;;;;0.77;0.77;;;7.40;99.90;;;;;;5038456;28;20293;-86
2021/03/23 05:01:08;;;;;;;0.80;0.80;;;7.40;99.90;;;;;;5044944;28;20277;-86
2021/03/23 05:03:34;;;;;;;0.23;0.20;;;7.40;99.90;;;;;;5047149;28;20174;-86
2021/03/23 05:06:07;;;;;;;0.50;0.47;;;7.40;99.90;;;;;;5035077;28;20667;-87
2021/03/23 05:08:34;;;;;;;0.57;0.57;;;7.30;99.90;;;;;;5049168;28;20175;-87
2021/03/23 05:11:00;;;;;;;1.67;0.67;;;7.30;99.90;;;;;;5035009;28;20455;-86
2021/03/23 05:13:25;;;;;;;0.70;0.60;;;7.20;99.90;;;;;;5052809;28;20284;-87
2021/03/23 05:15:51;;;;;;;0.93;0.60;;;7.20;99.90;;;;;;5043594;28;20630;-87
2021/03/23 05:18:17;;;;;;;0.73;0.73;;;7.20;99.90;;;;;;5048746;28;20187;-87
2021/03/23 05:20:43;;;;;;;2.17;0.87;;;7.20;99.90;;;;;;5041828;28;20201;-87
2021/03/23 05:23:09;;;;;;;0.17;0.17;;;7.30;99.90;;;;;;5046042;28;20562;-86
2021/03/23 05:25:35;;;;;;;1.13;1.03;;;7.30;99.90;;;;;;5041225;28;20298;-87
2021/03/23 05:28:00;;;;;;;0.60;0.60;;;7.30;99.90;;;;;;5042728;28;20187;-87
2021/03/23 05:30:30;;;;;;;1.03;0.70;;;7.30;99.90;;;;;;5053190;28;20239;-87
2021/03/23 05:32:56;;;;;;;1.40;1.03;;;7.10;99.90;;;;;;5036005;28;20278;-86
2021/03/23 05:35:21;;;;;;;1.07;0.97;;;7.20;99.90;;;;;;5043641;28;20758;-87
2021/03/23 05:37:47;;;;;;;0.57;0.37;;;7.20;99.90;;;;;;5052275;28;20186;-88
2021/03/23 05:40:38;;;;;;;1.60;1.13;;;7.30;99.90;;;;;;5048705;28;20217;-87
2021/03/23 05:43:22;;;;;;;0.93;0.40;;;7.30;99.90;;;;;;5049305;28;20282;-86
2021/03/23 05:45:56;;;;;;;0.30;0.30;;;7.30;99.90;;;;;;5049054;28;20207;-86
2021/03/23 05:48:29;;;;;;;1.20;1.13;;;7.40;99.90;;;;;;5044440;28;20780;-86
2021/03/23 05:51:07;;;;;;;0.57;0.57;;;7.40;99.90;;;;;;5048654;28;20182;-87
2021/03/23 05:54:15;;;;;;;2.00;1.03;;;7.40;99.90;;;;;;5051888;28;20186;-86
2021/03/23 05:56:44;;;;;;;0.30;0.30;;;7.30;99.90;;;;;;5038831;28;20183;-86
2021/03/23 05:59:16;;;;;;;1.53;0.83;;;7.30;99.90;;;;;;5038948;28;20210;-86
2021/03/23 06:01:53;;;;;;;0.97;0.83;;;7.30;99.90;;;;;;5049069;28;20183;-86
2021/03/23 06:04:43;;;;;;;0.60;0.60;;;7.40;99.90;;;;;;5048591;28;20189;-86
2021/03/23 06:07:15;;;;;;;0.37;0.37;;;7.30;99.90;;;;;;5049012;28;20190;-86
2021/03/23 06:09:43;;;;;;;0.83;0.83;;;7.40;99.90;;;;;;5048448;28;20223;-86
2021/03/23 06:12:29;;;;;;;2.27;0.83;;;7.40;99.90;;;;;;5041248;28;20225;-86
2021/03/23 06:15:00;;;;;;;0.30;0.30;;;7.50;99.90;;;;;;5038415;28;20198;-85
2021/03/23 06:17:38;;;;;;;0.83;0.70;;;7.50;99.90;;;;;;5044282;28;20289;-85
2021/03/23 06:20:42;;;;;;;2.33;0.83;;;7.60;99.90;;;;;;5045555;28;20701;-86
2021/03/23 06:23:39;;;;;;;1.30;1.23;;;7.60;99.90;;;;;;5046335;28;20178;-85
2021/03/23 06:26:22;;;;;;;1.30;0.97;;;7.60;99.90;;;;;;5041444;28;20773;-84
2021/03/23 06:29:10;;;;;;;0.80;0.80;;;7.60;99.90;;;;;;5038113;28;20203;-86
2021/03/23 06:32:03;;;;;;;0.17;0.17;;;7.60;99.90;;;;;;5044253;28;20291;-85
2021/03/23 06:34:31;;;;;;;0.30;0.30;;;7.60;99.90;;;;;;5038273;28;20188;-85
2021/03/23 06:36:59;;;;;;;2.93;0.90;;;7.60;99.90;;;;;;5045652;28;20183;-85
2021/03/23 06:39:28;;;;;;;1.13;1.03;;;7.60;99.90;;;;;;5050111;28;20223;-86
2021/03/23 06:42:02;;;;;;;0.50;0.50;;;7.60;99.90;;;;;;5047143;28;20235;-86
2021/03/23 06:44:40;;;;;;;1.87;0.90;;;7.60;99.90;;;;;;5050322;28;20271;-85
2021/03/23 06:47:26;;;;;;;1.20;0.47;;;7.60;99.90;;;;;;5057167;28;20189;-85
2021/03/23 06:49:52;;;;;;;0.40;0.40;;;7.50;99.90;;;;;;5040555;28;20295;-86
2021/03/23 06:52:23;;;;;;;0.87;0.73;;;7.60;99.90;;;;;;5033162;28;20178;-85
2021/03/23 06:55:23;;;;;;;0.63;0.63;;;7.50;99.90;;;;;;5047385;28;20564;-84
2021/03/23 06:57:49;;;;;;;0.20;0.20;;;7.50;99.90;;;;;;5043048;28;20193;-85
2021/03/23 07:00:15;;;;;;;3.83;0.70;;;7.60;99.90;;;;;;5037863;28;20207;-85
2021/03/23 07:02:46;;;;;;;1.27;0.40;;;7.60;99.90;;;;;;5035012;28;20190;-85
2021/03/23 07:05:32;;;;;;;0.87;0.57;;;7.70;99.90;;;;;;5035899;28;20175;-85
2021/03/23 07:08:09;;;;;;;1.27;1.23;;;7.70;99.90;;;;;;5041849;28;20213;-87
2021/03/23 07:10:42;;;;;;;0.57;0.57;;;7.70;99.90;;;;;;5037165;28;20315;-84
2021/03/23 07:13:39;;;;;;;0.50;0.43;;;7.70;99.90;;;;;;5045093;28;20182;-85
2021/03/23 07:16:10;;;;;;;0.53;0.53;;;7.70;99.90;;;;;;5043124;28;20272;-84
2021/03/23 07:18:42;;;;;;;0.73;0.33;;;7.70;99.90;;;;;;5046254;28;20246;-85
2021/03/23 07:21:40;;;;;;;0.70;0.67;;;7.70;99.90;;;;;;5043316;28;20702;-86
2021/03/23 07:24:12;;;;;;;1.30;0.57;;;7.70;99.90;;;;;;5043715;28;20193;-87
2021/03/23 07:26:53;;;;;;;1.50;0.50;;;7.70;99.90;;;;;;5041526;28;20187;-85
2021/03/23 07:29:25;;;;;;;2.80;0.70;;;7.60;99.90;;;;;;5034805;28;20217;-86
2021/03/23 07:32:10;;;;;;;0.57;0.57;;;7.70;99.90;;;;;;5041608;28;20249;-86
2021/03/23 07:35:01;;;;;;;3.60;1.07;;;7.70;99.90;;;;;;5045814;28;20197;-86
2021/03/23 07:37:41;;;;;;;0.90;0.90;;;7.70;99.90;;;;;;5043090;28;20187;-86
2021/03/23 07:40:18;;;;;;;0.47;0.37;;;7.70;99.90;;;;;;5048724;28;20602;-86
2021/03/23 07:43:07;;;;;;;0.77;0.77;;;7.70;99.90;;;;;;5046602;28;20189;-85
2021/03/23 07:45:54;;;;;;;0.53;0.53;;;7.80;99.90;;;;;;5041452;28;20364;-85
2021/03/23 07:48:39;;;;;;;0.70;0.70;;;7.80;99.90;;;;;;5042549;28;20190;-85
2021/03/23 07:51:28;;;;;;;0.47;0.40;;;7.80;99.90;;;;;;5037021;28;20670;-83
2021/03/23 07:54:16;;;;;;;1.10;0.57;;;7.90;99.90;;;;;;5031011;28;20185;-85
2021/03/23 07:56:56;;;;;;;0.40;0.40;;;7.80;99.90;;;;;;5029824;28;20184;-85
2021/03/23 07:59:44;;;;;;;0.83;0.83;;;7.90;99.90;;;;;;5032036;28;20219;-88
2021/03/23 08:02:47;;;;;;;0.50;0.50;;;7.90;99.90;;;;;;5042988;28;20719;-84
2021/03/23 08:05:31;;;;;;;2.13;0.90;;;8.00;99.90;;;;;;5044463;28;20186;-85
2021/03/23 08:08:16;;;;;;;0.93;0.93;;;8.00;99.90;;;;;;5042282;28;20690;-84
2021/03/23 08:11:13;;;;;;;0.60;0.47;;;8.00;99.90;;;;;;5044905;28;20255;-86
2021/03/23 08:14:03;;;;;;;0.97;0.70;;;7.90;99.90;;;;;;5042162;28;20190;-84
2021/03/23 08:17:06;;;;;;;0.60;0.60;;;8.00;99.90;;;;;;5038454;28;20271;-85
2021/03/23 08:19:57;;;;;;;1.07;0.43;;;8.10;99.90;;;;;;5040515;28;20213;-87
2021/03/23 08:22:58;;;;;;;1.33;0.83;;;8.20;99.90;;;;;;5044068;28;20193;-84
2021/03/23 08:25:30;;;;;;;0.67;0.63;;;8.30;99.90;;;;;;5044966;28;20236;-84
2021/03/23 08:28:36;;;;;;;1.50;1.40;;;8.30;99.90;;;;;;5046491;28;20188;-85
2021/03/23 08:31:42;;;;;;;0.90;0.70;;;8.40;99.90;;;;;;5047761;28;20195;-85
2021/03/23 08:34:26;;;;;;;0.63;0.63;;;8.40;99.90;;;;;;5048982;28;20173;-85
2021/03/23 08:37:05;;;;;;;1.90;0.63;;;8.40;99.90;;;;;;5048535;28;20183;-85
2021/03/23 08:40:15;;;;;;;1.60;0.67;;;8.40;99.90;;;;;;5048922;28;20219;-84
2021/03/23 08:42:45;;;;;;;4.17;0.87;;;8.40;99.90;;;;;;5041696;28;20181;-84
2021/03/23 08:45:15;;;;;;;3.03;0.83;;;8.50;99.90;;;;;;5055716;28;20179;-86
2021/03/23 08:47:48;;;;;;;3.97;0.87;;;8.50;99.90;;;;;;5055863;28;20209;-84
2021/03/23 08:50:29;;;;;;;1.17;1.07;;;8.50;99.90;;;;;;5042059;28;20285;-85
2021/03/23 08:52:58;;;;;;;0.30;0.27;;;8.60;99.90;;;;;;5043235;28;20279;-84
2021/03/23 08:55:26;;;;;;;2.07;0.80;;;8.70;99.90;;;;;;5044161;28;20683;-86
2021/03/23 08:58:02;;;;;;;0.60;0.60;;;8.70;99.90;;;;;;5037745;28;20276;-85
2021/03/23 09:00:48;;;;;;;0.80;0.80;;;8.50;99.90;;;;;;5042430;28;20217;-85
2021/03/23 09:03:14;;;;;;;1.30;0.40;;;8.70;99.90;;;;;;5049644;28;20170;-85
2021/03/23 09:05:52;;;;;;;1.13;1.03;;;9.00;99.90;;;;;;5045176;28;20262;-85
2021/03/23 09:08:39;;;;;;;0.87;0.87;;;9.10;99.90;;;;;;5052133;28;20244;-86
2021/03/23 09:11:30;;;;;;;0.63;0.50;;;9.10;99.90;;;;;;5055657;28;20177;-85
2021/03/23 09:14:08;;;;;;;0.87;0.80;;;8.90;99.90;;;;;;5047838;28;20557;-85
2021/03/23 09:16:52;;;;;;;0.33;0.33;;;9.10;99.90;;;;;;5037889;28;20181;-86
2021/03/23 09:19:41;;;;;;;0.53;0.47;;;9.30;99.90;;;;;;5052129;28;20265;-85
2021/03/23 09:22:31;;;;;;;0.40;0.40;;;9.30;99.90;;;;;;5039622;28;20189;-84
2021/03/23 09:25:41;;;;;;;1.30;0.40;;;9.50;99.90;;;;;;5047418;28;20234;-86
2021/03/23 09:28:08;;;;;;;0.37;0.37;;;9.60;99.90;;;;;;5040258;28;20696;-85
2021/03/23 09:30:39;;;;;;;0.20;0.20;;;9.90;99.90;;;;;;5034747;28;20240;-85
2021/03/23 09:33:16;;;;;;;0.70;0.70;;;10.20;99.90;;;;;;5034674;28;20185;-85
2021/03/23 09:36:03;;;;;;;0.67;0.67;;;10.30;99.90;;;;;;5048599;28;20180;-88
2021/03/23 09:39:16;;;;;;;0.47;0.47;;;10.40;99.90;;;;;;5048805;28;20186;-84
2021/03/23 09:41:51;;;;;;;4.23;1.10;;;10.50;99.90;;;;;;5033086;28;20185;-85
2021/03/23 09:44:36;;;;;;;0.20;0.20;;;10.50;99.90;;;;;;5040748;28;20189;-87
2021/03/23 09:47:02;;;;;;;2.10;1.47;;;10.60;99.90;;;;;;5043541;28;20633;-86
2021/03/23 09:49:46;;;;;;;1.40;0.93;;;10.50;99.90;;;;;;5037179;28;20221;-84
2021/03/23 09:52:17;;;;;;;2.17;0.77;;;10.60;99.90;;;;;;5040877;28;20203;-85
2021/03/23 09:54:46;;;;;;;1.37;1.33;;;10.60;99.90;;;;;;5040374;28;20194;-85
2021/03/23 09:57:13;;;;;;;1.53;1.27;;;10.50;99.90;;;;;;5054776;28;20204;-84
2021/03/23 09:59:51;;;;;;;2.13;1.10;;;10.20;99.90;;;;;;5047823;28;20225;-84
2021/03/23 10:02:17;;;;;;;1.77;0.87;;;10.30;99.90;;;;;;5041519;28;20711;-83
2021/03/23 10:04:43;;;;;;;1.13;0.77;;;10.10;99.90;;;;;;5046149;28;20182;-85
2021/03/23 10:07:29;;;;;;;0.83;0.83;;;10.00;99.90;;;;;;5044587;28;20183;-84
2021/03/23 10:10:20;;;;;;;0.70;0.70;;;10.10;99.90;;;;;;5043483;28;20219;-84
2021/03/23 10:12:45;;;;;;;0.37;0.33;;;10.20;99.90;;;;;;5053816;28;20230;-84
2021/03/23 10:15:22;;;;;;;2.13;1.20;;;10.30;99.90;;;;;;5036732;28;20194;-84
2021/03/23 10:17:47;;;;;;;0.60;0.60;;;10.30;99.90;;;;;;5047424;28;20518;-84
2021/03/23 10:20:18;;;;;;;3.23;1.13;;;10.30;99.90;;;;;;5044892;28;20223;-84
2021/03/23 10:22:52;;;;;;;2.93;1.40;;;10.30;99.90;;;;;;5044170;28;20561;-85
2021/03/23 10:25:19;;;;;;;1.53;0.73;;;10.30;99.90;;;;;;5043893;28;20181;-84
2021/03/23 10:27:45;;;;;;;1.93;1.00;;;10.20;99.90;;;;;;5041653;28;20197;-85
2021/03/23 10:30:27;;;;;;;1.80;1.30;;;10.00;99.90;;;;;;5039235;28;20206;-84
2021/03/23 10:32:56;;;;;;;1.13;1.03;;;10.10;99.90;;;;;;5047418;28;20235;-84
2021/03/23 10:35:29;;;;;;;1.87;0.93;;;10.10;99.90;;;;;;5051036;28;20193;-85
2021/03/23 10:38:21;;;;;;;3.10;0.93;;;10.00;99.90;;;;;;5042716;28;20193;-84
2021/03/23 10:40:52;;;;;;;4.67;1.13;;;10.20;99.90;;;;;;5048049;28;20191;-83
2021/03/23 10:43:30;;;;;;;0.30;0.30;;;10.20;99.90;;;;;;5040686;28;20179;-84
2021/03/23 10:45:57;;;;;;;1.43;0.70;;;10.30;99.90;;;;;;5045170;28;20181;-83
2021/03/23 10:48:36;;;;;;;0.70;0.70;;;10.40;99.90;;;;;;5051947;28;20186;-85
2021/03/23 10:51:28;;;;;;;0.70;0.70;;;10.40;99.90;;;;;;5044500;28;20182;-82
2021/03/23 10:54:07;;;;;;;0.53;0.50;;;10.40;99.90;;;;;;5036944;28;20174;-84
2021/03/23 10:56:36;;;;;;;1.30;0.70;;;10.30;99.90;;;;;;5044825;28;20182;-83
2021/03/23 10:59:05;;;;;;;0.43;0.43;;;10.20;99.90;;;;;;5045497;28;20237;-83
2021/03/23 11:01:31;;;;;;;2.23;0.80;;;10.10;99.90;;;;;;5038987;28;20211;-83
2021/03/23 11:04:13;;;;;;;0.57;0.57;;;10.20;99.90;;;;;;5048943;28;20665;-82
2021/03/23 11:06:40;;;;;;;0.43;0.43;;;10.30;99.90;;;;;;5049679;28;20182;-82
2021/03/23 11:09:08;;;;;;;4.63;1.67;;;10.40;99.90;;;;;;5048437;28;21222;-82
2021/03/23 11:11:37;;;;;;;0.30;0.30;;;10.50;99.90;;;;;;5042841;28;20190;-82
2021/03/23 11:14:03;;;;;;;2.73;1.27;;;10.40;99.90;;;;;;5044548;28;20190;-81
2021/03/23 11:16:32;;;;;;;0.77;0.77;;;10.50;99.90;;;;;;5038343;28;20657;-81
2021/03/23 11:19:00;;;;;;;2.40;0.90;;;10.40;99.90;;;;;;5047130;28;20237;-80
2021/03/23 11:21:30;;;;;;;0.57;0.57;;;10.50;99.90;;;;;;5037525;28;20188;-80
2021/03/23 11:23:56;;;;;;;1.13;1.03;;;10.50;99.90;;;;;;5049405;28;20261;-80
2021/03/23 11:26:26;;;;;;;2.47;0.67;;;10.70;99.90;;;;;;5040272;28;20197;-80
2021/03/23 11:28:53;;;;;;;1.03;1.03;;;10.60;99.90;;;;;;5043641;28;20220;-83
2021/03/23 11:31:19;;;;;;;0.53;0.20;;;10.60;99.90;;;;;;5040393;28;20566;-82
2021/03/23 11:33:45;;;;;;;0.80;0.80;;;10.70;99.90;;;;;;5046212;28;20310;-81
2021/03/23 11:36:11;;;;;;;0.70;0.63;;;10.80;99.90;;;;;;5038086;28;20865;-81
2021/03/23 11:38:39;;;;;;;2.63;1.40;;;10.70;99.90;;;;;;5043270;28;20284;-81
2021/03/23 11:41:11;;;;;;;0.37;0.37;;;10.70;99.90;;;;;;5045196;28;20672;-80
2021/03/23 11:43:42;;;;;;;0.77;0.60;;;10.70;99.90;;;;;;5044561;28;20658;-81
2021/03/23 11:46:30;;;;;;;0.60;0.60;;;10.70;99.90;;;;;;5045855;28;20182;-86
2021/03/23 11:49:09;;;;;;;1.30;1.20;;;10.70;99.90;;;;;;5044287;28;20213;-84
2021/03/23 11:51:46;;;;;;;1.80;1.07;;;10.20;99.90;;;;;;5035336;28;20255;-83
2021/03/23 11:54:12;;;;;;;0.20;0.20;;;10.60;99.90;;;;;;5038618;28;20234;-83
2021/03/23 11:56:38;;;;;;;0.40;0.40;;;10.70;99.90;;;;;;5036480;28;20666;-83
2021/03/23 11:59:04;;;;;;;1.30;1.17;;;10.90;99.90;;;;;;5045030;28;20300;-83
2021/03/23 12:01:30;;;;;;;5.87;0.70;;;11.00;99.90;;;;;;5061889;28;20199;-85
2021/03/23 12:03:56;;;;;;;1.40;0.83;;;11.20;99.90;;;;;;5048718;28;20227;-84
2021/03/23 12:06:34;;;;;;;1.03;1.03;;;11.20;99.90;;;;;;5055463;28;20182;-83
2021/03/23 12:09:03;;;;;;;1.80;0.60;;;11.50;99.90;;;;;;5042584;28;20210;-86
2021/03/23 12:11:39;;;;;;;0.73;0.50;;;11.70;99.90;;;;;;5051869;28;20210;-85
2021/03/23 12:14:25;;;;;;;0.43;0.43;;;11.80;99.90;;;;;;5050526;28;20273;-85
2021/03/23 12:17:02;;;;;;;0.90;0.53;;;11.90;99.90;;;;;;5048646;28;20556;-87
2021/03/23 12:19:41;;;;;;;0.80;0.80;;;12.10;99.90;;;;;;5041928;28;20212;-85
2021/03/23 12:22:09;;;;;;;3.10;0.97;;;12.40;99.90;;;;;;5044906;28;20204;-86
2021/03/23 12:24:35;;;;;;;0.67;0.63;;;12.50;99.90;;;;;;5049777;28;20213;-86
2021/03/23 12:27:01;;;;;;;1.13;1.03;;;12.80;99.90;;;;;;5054276;28;20195;-85
2021/03/23 12:29:26;;;;;;;4.17;0.50;;;13.00;99.90;;;;;;5042878;28;20213;-86
2021/03/23 12:31:52;;;;;;;2.43;0.30;;;13.10;99.90;;;;;;5040347;28;20610;-86
2021/03/23 12:34:18;;;;;;;1.90;0.67;;;13.10;99.90;;;;;;5043321;28;20195;-86
2021/03/23 12:36:44;;;;;;;0.40;0.40;;;13.20;99.90;;;;;;5042536;28;20190;-86
2021/03/23 12:39:12;;;;;;;0.53;0.37;;;13.30;99.90;;;;;;5046303;28;20210;-88
2021/03/23 12:41:39;;;;;;;0.80;0.60;;;13.60;99.90;;;;;;5043885;28;20295;-86
2021/03/23 12:44:06;;;;;;;2.60;0.70;;;13.60;99.90;;;;;;5048842;28;20195;-87
2021/03/23 12:46:33;;;;;;;1.57;0.93;;;13.50;99.90;;;;;;5049013;28;20193;-86
2021/03/23 12:49:00;;;;;;;1.00;1.00;;;13.90;99.90;;;;;;5043558;28;20213;-86
2021/03/23 12:51:29;;;;;;;0.40;0.40;;;13.90;99.90;;;;;;5044464;28;20186;-86
2021/03/23 12:53:55;;;;;;;0.47;0.43;;;13.50;99.90;;;;;;5040981;28;20621;-86
2021/03/23 12:56:21;;;;;;;2.43;1.07;;;13.80;99.90;;;;;;5036904;28;20216;-86
2021/03/23 12:58:47;;;;;;;4.00;0.67;;;13.80;99.90;;;;;;5044145;28;20731;-86
2021/03/23 13:01:14;;;;;;;4.80;1.13;;;13.80;99.90;;;;;;5053180;28;20192;-87
2021/03/23 13:03:40;;;;;;;3.33;1.63;;;13.90;99.90;;;;;;5047816;28;20193;-84
2021/03/23 13:06:08;;;;;;;2.03;1.90;;;13.40;99.90;;;;;;5047860;28;20275;-85
2021/03/23 13:08:36;;;;;;;1.17;0.90;;;13.60;99.90;;;;;;5047501;28;20206;-86
2021/03/23 13:11:16;;;;;;;0.30;0.23;;;13.80;99.90;;;;;;5045568;28;20331;-84
2021/03/23 13:13:51;;;;;;;0.37;0.33;;;13.90;99.90;;;;;;5038832;28;20281;-85
2021/03/23 13:16:18;;;;;;;0.37;0.37;;;13.90;99.90;;;;;;5039331;28;20188;-85
2021/03/23 13:18:44;;;;;;;0.57;0.57;;;13.90;99.90;;;;;;5044517;28;20214;-85
2021/03/23 13:21:22;;;;;;;1.00;0.87;;;13.40;99.90;;;;;;5043336;28;20740;-84